Data for 09/01/2007

Time Sea-Level Adjusted Pressure Absolute Pressure Temperature Relative Humidity Dew Point   
(mb) (inHg) (mb) (inHg) (C) (F) (%) (C) (F)
00:05 1019 30.09 849 25.07 17.7 63.8 58 9.5 49.1
00:10 1019 30.09 849 25.07 17.5 63.4 59 9.4 48.9
00:15 1020 30.12 849 25.07 17.6 63.7 58 9.4 48.9
00:20 1020 30.12 849 25.07 17.8 64.1 59 9.7 49.5
00:25 1020 30.12 849 25.07 17.3 63.1 60 9.5 49.1
00:30 1020 30.12 849 25.07 17.1 62.8 60 9.3 48.7
00:35 1020 30.12 849 25.07 17.2 62.9 65 10.6 51
00:40 1020 30.12 849 25.07 17.4 63.2 58 9.2 48.6
00:45 1020 30.12 849 25.07 17.5 63.5 58 9.3 48.8
00:50 1020 30.12 849 25.07 17.1 62.8 65 10.5 50.9
00:55 1020 30.12 849 25.07 16.4 61.5 64 9.6 49.2
01:00 1020 30.12 849 25.07 16.3 61.3 64 9.4 48.9
01:05 1020 30.12 849 25.07 16.1 60.9 64 9.3 48.7
01:10 1020 30.12 849 25.07 16.3 61.4 62 9.1 48.4
01:15 1020 30.12 849 25.07 16.5 61.7 61 9.1 48.4
01:20 1020 30.12 849 25.07 16.7 62 61 9.2 48.6
01:25 1020 30.12 849 25.07 16.6 61.9 61 9.3 48.7
01:30 1020 30.12 849 25.07 16.7 62 61 9.1 48.4
01:35 1020 30.12 849 25.07 16.8 62.2 61 9.3 48.8
01:40 1020 30.12 849 25.07 16.7 62 61 9.3 48.7
01:45 1020 30.12 849 25.07 16.6 61.8 62 9.2 48.6
01:50 1020 30.12 849 25.07 16.6 61.9 61 9 48.3
01:55 1020 30.12 849 25.07 16.8 62.2 60 9.1 48.4
02:00 1020 30.12 849 25.07 16.9 62.3 60 9.1 48.4
02:05 1020 30.12 849 25.07 17.1 62.8 63 10.1 50.1
02:10 1020 30.12 849 25.07 17.1 62.8 62 9.9 49.8
02:15 1020 30.12 849 25.07 17 62.5 66 10.6 51.2
02:20 1020 30.12 849 25.07 17 62.6 63 10.1 50.1
02:25 1020 30.12 849 25.07 16.5 61.7 70 11 51.8
02:30 1020 30.12 849 25.07 16.3 61.3 68 10.4 50.7
02:35 1020 30.12 849 25.07 16.3 61.4 65 9.8 49.7
02:40 1020 30.12 849 25.07 16.7 62 65 10.2 50.3
02:45 1020 30.12 849 25.07 17.1 62.7 60 9.4 49
02:50 1020 30.12 849 25.07 17.4 63.3 64 10.5 50.9
02:55 1020 30.12 849 25.07 17.3 63.1 63 10.2 50.3
03:00 1020 30.12 849 25.07 16.9 62.4 63 9.9 49.8
03:05 1020 30.12 849 25.07 16.8 62.3 64 10 50
03:10 1020 30.12 849 25.07 16.7 62.1 64 10 50
03:15 1020 30.12 849 25.07 16.8 62.2 64 9.9 49.8
03:20 1020 30.12 849 25.07 16.6 61.9 64 9.9 49.8
03:25 1020 30.12 849 25.07 16.5 61.6 64 9.7 49.4
03:30 1020 30.12 849 25.07 16.4 61.4 64 9.7 49.4
03:35 1020 30.12 849 25.07 16.4 61.4 64 9.6 49.3
03:40 1020 30.12 850 25.1 16.5 61.8 62 9.2 48.6
03:45 1020 30.12 850 25.1 16.7 62.1 63 9.8 49.6
03:50 1020 30.12 850 25.1 16.5 61.7 64 9.7 49.4
03:55 1020 30.12 850 25.1 16.6 61.9 64 9.8 49.7
04:00 1020 30.12 850 25.1 16.8 62.3 61 9.5 49
04:05 1020 30.12 850 25.1 17.2 63 62 10 50
04:10 1020 30.12 850 25.1 15.9 60.7 70 10.5 50.9
04:15 1020 30.12 850 25.1 15.1 59.1 75 10.6 51.1
04:20 1020 30.12 850 25.1 14.6 58.2 73 9.9 49.9
04:25 1020 30.12 850 25.1 14 57.2 76 10 49.9
04:30 1020 30.12 850 25.1 13.9 57 73 9.1 48.5
04:35 1020 30.12 850 25.1 14.2 57.6 71 9.1 48.3
04:40 1020 30.12 850 25.1 14.5 58.1 73 9.8 49.6
04:45 1020 30.12 850 25.1 14.8 58.6 68 9.1 48.3
04:50 1020 30.12 850 25.1 15 59.1 67 8.9 48.1
04:55 1020 30.12 850 25.1 15.5 60 64 8.9 48.1
05:00 1020 30.12 849 25.07 15.6 60 65 9 48.2
05:05 1020 30.12 849 25.07 15.4 59.6 65 8.9 48.1
05:10 1020 30.12 849 25.07 15.2 59.4 71 10 50.1
05:15 1020 30.12 849 25.07 15 59 67 9.1 48.3
05:20 1020 30.12 849 25.07 14.3 57.8 70 9 48.3
05:25 1020 30.12 850 25.1 13.7 56.6 73 8.9 47.9
05:30 1020 30.12 850 25.1 13.4 56.1 76 9.2 48.6
05:35 1020 30.12 850 25.1 13.5 56.3 72 8.6 47.6
05:40 1020 30.12 850 25.1 13.2 55.8 74 8.8 47.8
05:45 1020 30.12 850 25.1 13 55.5 74 8.5 47.4
05:50 1020 30.12 850 25.1 12.9 55.3 75 8.6 47.4
05:55 1020 30.12 850 25.1 12.7 54.8 75 8.5 47.3
06:00 1020 30.12 850 25.1 12.5 54.4 77 8.5 47.3
06:05 1020 30.12 850 25.1 12.4 54.2 76 8.3 47
06:10 1021 30.15 850 25.1 12.4 54.3 75 8.1 46.7
06:15 1021 30.15 850 25.1 12.7 54.8 74 8.1 46.6
06:20 1021 30.15 850 25.1 12.9 55.2 73 8.2 46.8
06:25 1021 30.15 850 25.1 12.8 55 73 8.2 46.7
06:30 1021 30.15 850 25.1 12.4 54.3 76 8.2 46.8
06:35 1021 30.15 850 25.1 12 53.6 76 7.9 46.3
06:40 1021 30.15 850 25.1 12.2 54 74 7.8 46
06:45 1021 30.15 850 25.1 12.5 54.4 73 7.7 45.9
06:50 1021 30.15 850 25.1 12.6 54.8 72 7.7 45.8
06:55 1021 30.15 850 25.1 12.9 55.3 70 7.7 45.8
07:00 1021 30.15 850 25.1 12.9 55.3 71 7.8 46
07:05 1021 30.15 850 25.1 12.9 55.3 70 7.7 45.8
07:10 1021 30.15 850 25.1 12.9 55.3 70 7.7 45.9
07:15 1021 30.15 850 25.1 13.1 55.6 68 7.5 45.5
07:20 1021 30.15 850 25.1 13.4 56.1 68 7.6 45.7
07:25 1021 30.15 850 25.1 13.5 56.3 68 7.7 45.8
07:30 1021 30.15 850 25.1 13.5 56.4 67 7.5 45.5
07:35 1021 30.15 850 25.1 13.8 56.8 66 7.7 45.9
07:40 1021 30.15 850 25.1 14 57.2 65 7.6 45.8
07:45 1021 30.15 850 25.1 14.4 58 63 7.6 45.7
07:50 1021 30.15 850 25.1 14.6 58.3 64 7.9 46.2
07:55 1021 30.15 850 25.1 14.6 58.3 64 7.8 46.1
08:00 1021 30.15 850 25.1 14.8 58.6 63 7.9 46.2
08:05 1021 30.15 850 25.1 14.9 58.8 64 8.2 46.7
08:10 1021 30.15 850 25.1 15.1 59.1 64 8.3 46.9
08:15 1021 30.15 850 25.1 15.4 59.7 63 8.4 47
08:20 1021 30.15 850 25.1 15.6 60.1 61 8.3 46.9
08:25 1021 30.15 850 25.1 16.2 61.1 59 8.3 47
08:30 1021 30.15 850 25.1 16.7 62 58 8.3 47
08:35 1021 30.15 850 25.1 17.2 62.9 56 8.5 47.3
08:40 1021 30.15 850 25.1 17.6 63.6 58 9.2 48.6
08:45 1021 30.15 850 25.1 17.6 63.7 56 8.9 48.1
08:50 1021 30.15 850 25.1 17.9 64.2 55 8.9 48
08:55 1021 30.15 850 25.1 18.6 65.5 51 8.5 47.3
09:00 1021 30.15 850 25.1 19.2 66.6 50 8.5 47.3
09:05 1021 30.15 850 25.1 19.5 67 51 9.1 48.3
09:10 1021 30.15 850 25.1 19.8 67.6 49 8.9 48
09:15 1021 30.15 850 25.1 19.8 67.7 49 9 48.3
09:20 1021 30.15 850 25.1 20.5 68.9 47 9 48.1
09:25 1021 30.15 850 25.1 21.1 70.1 47 9.4 48.9
09:30 1021 30.15 850 25.1 21.7 71 45 9.4 48.8
09:35 1021 30.15 850 25.1 21.6 70.8 42 8.4 47.1
09:40 1021 30.15 850 25.1 21.4 70.4 45 9 48.2
09:45 1021 30.15 850 25.1 22.2 71.9 40 8.3 46.9
09:50 1021 30.15 850 25.1 22.7 72.8 40 8.6 47.5
09:55 1021 30.15 850 25.1 22.5 72.6 40 8.5 47.3
10:00 1021 30.15 850 25.1 23.1 73.5 37 7.8 46
10:05 1021 30.15 850 25.1 23.7 74.7 35 7.5 45.6
10:10 1021 30.15 850 25.1 23.4 74 34 6.9 44.4
10:15 1021 30.15 850 25.1 23.1 73.6 37 7.8 46.1
10:20 1021 30.15 850 25.1 23.3 73.9 35 7.3 45.1
10:25 1021 30.15 850 25.1 24.1 75.3 34 7.6 45.6
10:30 1021 30.15 850 25.1 24.9 76.8 33 7.9 46.2
10:35 1021 30.15 850 25.1 24.2 75.6 33 7.2 45
10:40 1021 30.15 850 25.1 24 75.2 35 7.8 46.1
10:45 1021 30.15 850 25.1 24.8 76.7 33 7.6 45.6
10:50 1021 30.15 850 25.1 25.9 78.6 30 7.4 45.3
10:55 1021 30.15 850 25.1 26.6 79.8 29 7.4 45.2
11:00 1021 30.15 850 25.1 27.1 80.7 29 8 46.5
11:05 1020 30.12 850 25.1 27 80.5 28 7.3 45.2
11:10 1021 30.15 850 25.1 27.2 80.9 29 8.1 46.5
11:15 1020 30.12 850 25.1 26.9 80.4 29 7.6 45.7
11:20 1021 30.15 850 25.1 27.3 81.1 29 8 46.4
11:25 1021 30.15 850 25.1 27.2 80.9 29 7.8 46.1
11:30 1020 30.12 850 25.1 27.2 81 29 8.1 46.6
11:35 1021 30.15 850 25.1 27.4 81.4 29 8.1 46.6
11:40 1021 30.15 850 25.1 26.7 80 30 8.1 46.6
11:45 1021 30.15 850 25.1 26.4 79.6 30 7.8 46
11:50 1021 30.15 850 25.1 27.1 80.9 28 7.3 45.1
11:55 1021 30.15 850 25.1 27.2 81 29 7.8 46.1
12:00 1020 30.12 850 25.1 26.3 79.3 30 7.4 45.4
12:05 1020 30.12 850 25.1 26.2 79.1 31 8 46.5
12:10 1020 30.12 850 25.1 26.1 79 30 7.4 45.4
12:15 1020 30.12 849 25.07 26 78.7 29 6.8 44.3
12:20 1020 30.12 850 25.1 26.1 78.9 29 6.9 44.4
12:25 1020 30.12 849 25.07 26.8 80.3 27 6.7 44.1
12:30 1020 30.12 849 25.07 27.3 81.1 27 6.8 44.2
12:35 1020 30.12 849 25.07 27.6 81.7 27 7 44.6
12:40 1020 30.12 849 25.07 27.9 82.2 26 6.8 44.2
12:45 1020 30.12 849 25.07 28.1 82.7 24 6 42.8
12:50 1020 30.12 849 25.07 28.3 82.9 25 6.8 44.2
12:55 1020 30.12 849 25.07 28.3 83 25 6.7 44.1
13:00 1020 30.12 849 25.07 29 84.2 24 6.7 44.1
13:05 1020 30.12 849 25.07 28.8 83.9 24 6.5 43.7
13:10 1020 30.12 849 25.07 29.1 84.4 22 5.6 42.1
13:15 1020 30.12 849 25.07 29.3 84.7 22 5.9 42.6
13:20 1020 30.12 849 25.07 29 84.2 22 5.5 41.8
13:25 1020 30.12 849 25.07 29.3 84.7 21 4.7 40.5
13:30 1020 30.12 849 25.07 29.4 84.9 22 5.5 41.9
13:35 1019 30.09 849 25.07 29.5 85.2 19 4 39.2
13:40 1019 30.09 849 25.07 29.5 85.1 20 4.7 40.4
13:45 1019 30.09 849 25.07 28.8 83.9 20 4 39.1
13:50 1019 30.09 849 25.07 29.1 84.4 20 4.1 39.4
13:55 1019 30.09 849 25.07 29.9 85.8 20 4.7 40.4
14:00 1019 30.09 849 25.07 29.7 85.4 20 4.9 40.8
14:05 1019 30.09 849 25.07 29.2 84.6 20 4.3 39.8
14:10 1019 30.09 849 25.07 29.8 85.6 19 3.8 38.9
14:15 1019 30.09 849 25.07 30 86.1 23 6.8 44.2
14:20 1019 30.09 849 25.07 28.7 83.6 25 7.3 45.2
14:25 1019 30.09 849 25.07 28.1 82.5 24 6.2 43.1
14:30 1020 30.12 849 25.07 28.2 82.8 24 6.2 43.1
14:35 1020 30.12 849 25.07 29 84.3 23 6.3 43.4
14:40 1020 30.12 849 25.07 28.6 83.5 25 7.1 44.8
14:45 1019 30.09 849 25.07 28.3 82.9 25 6.7 44
14:50 1019 30.09 849 25.07 27.9 82.1 25 6.5 43.6
14:55 1020 30.12 849 25.07 27.8 82 26 6.8 44.2
15:00 1020 30.12 849 25.07 27.8 82 26 6.7 44
15:05 1019 30.09 849 25.07 28 82.3 24 5.9 42.5
15:10 1019 30.09 849 25.07 27.8 82 25 6.1 42.9
15:15 1019 30.09 849 25.07 27.4 81.3 23 4.7 40.4
15:20 1019 30.09 849 25.07 28.3 82.9 21 4.2 39.5
15:25 1019 30.09 848 25.04 29.2 84.6 21 4.9 40.9
15:30 1019 30.09 848 25.04 29.5 85.1 20 4.4 40
15:35 1019 30.09 848 25.04 29.7 85.4 20 4.6 40.3
15:40 1019 30.09 848 25.04 30.1 86.3 19 4.6 40.3
15:45 1019 30.09 848 25.04 30.1 86.2 20 4.9 40.8
15:50 1019 30.09 848 25.04 30.7 87.2 19 4.5 40.1
15:55 1019 30.09 848 25.04 30.7 87.2 21 6.4 43.5
16:00 1019 30.09 848 25.04 29.9 85.8 22 6 42.7
16:05 1019 30.09 848 25.04 29.5 85 22 6 42.8
16:10 1019 30.09 848 25.04 28.9 84.1 22 5.6 42.2
16:15 1019 30.09 848 25.04 28.6 83.4 23 5.8 42.5
16:20 1019 30.09 848 25.04 28 82.4 24 5.7 42.2
16:25 1019 30.09 848 25.04 28.6 83.4 22 5.2 41.3
16:30 1019 30.09 848 25.04 28.9 84.1 22 5.7 42.2
16:35 1019 30.09 848 25.04 29.2 84.6 21 5.1 41.2
16:40 1019 30.09 848 25.04 29.5 85.2 22 5.7 42.3
16:45 1019 30.09 848 25.04 28.8 83.9 22 5 41.1
16:50 1019 30.09 848 25.04 28.8 83.9 21 4.9 40.8
16:55 1019 30.09 848 25.04 29.5 85.2 22 5.7 42.2
17:00 1019 30.09 848 25.04 29 84.1 22 5.5 42
17:05 1019 30.09 848 25.04 29 84.2 22 5.2 41.3
17:10 1019 30.09 848 25.04 29.3 84.8 21 5.3 41.5
17:15 1019 30.09 848 25.04 29.9 85.7 20 5 40.9
17:20 1019 30.09 848 25.04 30.1 86.2 20 5 41.1
17:25 1019 30.09 848 25.04 30.5 86.8 19 4.7 40.5
17:30 1019 30.09 848 25.04 30.5 86.9 18 4.1 39.4
17:35 1019 30.09 848 25.04 29.8 85.6 19 4.4 39.9
17:40 1019 30.09 848 25.04 29.6 85.2 20 4.7 40.5
17:45 1019 30.09 848 25.04 29.4 84.9 20 4.7 40.5
17:50 1019 30.09 848 25.04 29.1 84.5 21 4.7 40.4
17:55 1019 30.09 848 25.04 28.9 84 20 4.3 39.7
18:00 1019 30.09 848 25.04 29.2 84.6 21 5 41
18:05 1019 30.09 848 25.04 29.2 84.6 21 5 40.9
18:10 1019 30.09 848 25.04 29 84.2 21 4.8 40.6
18:15 1019 30.09 848 25.04 29 84.2 20 3.9 39
18:20 1019 30.09 848 25.04 28.7 83.7 20 4.1 39.3
18:25 1019 30.09 848 25.04 28.5 83.3 21 4.1 39.3
18:30 1019 30.09 848 25.04 28.1 82.6 21 3.9 39.1
18:35 1019 30.09 848 25.04 28 82.5 21 4 39.1
18:40 1019 30.09 848 25.04 28 82.5 23 5.5 41.9
18:45 1019 30.09 848 25.04 27.8 82.1 22 4.7 40.4
18:50 1019 30.09 848 25.04 27.8 82 23 4.8 40.6
18:55 1019 30.09 848 25.04 27.7 81.9 23 4.8 40.7
19:00 1019 30.09 848 25.04 27.7 81.8 23 4.8 40.7
19:05 1019 30.09 848 25.04 27.6 81.7 22 4.3 39.7
19:10 1019 30.09 848 25.04 27.5 81.5 23 4.8 40.7
19:15 1019 30.09 848 25.04 27.4 81.2 23 4.7 40.4
19:20 1019 30.09 848 25.04 27.1 80.8 23 4.5 40.1
19:25 1019 30.09 848 25.04 27.1 80.7 24 4.9 40.8
19:30 1019 30.09 848 25.04 27.1 80.7 22 4 39.2
19:35 1019 30.09 848 25.04 27.2 81 22 3.8 38.9
19:40 1019 30.09 848 25.04 27.2 80.9 22 4 39.2
19:45 1019 30.09 848 25.04 27 80.7 22 4.1 39.3
19:50 1019 30.09 848 25.04 26.9 80.4 23 4.3 39.7
19:55 1019 30.09 848 25.04 26.7 80.1 23 4.1 39.4
20:00 1019 30.09 848 25.04 26.6 79.8 24 4.3 39.8
20:05 1019 30.09 848 25.04 26.4 79.5 23 4.1 39.4
20:10 1019 30.09 848 25.04 26.5 79.7 23 4 39.3
20:15 1019 30.09 848 25.04 26.5 79.7 24 4.4 39.9
20:20 1019 30.09 848 25.04 26.2 79.1 33 8.8 47.9
20:25 1019 30.09 848 25.04 24.6 76.3 34 8 46.4
20:30 1019 30.09 848 25.04 24.2 75.5 36 8.2 46.8
20:35 1019 30.09 848 25.04 23.9 75 41 10 50.1
20:40 1019 30.09 848 25.04 23.1 73.5 42 9.5 49.1
20:45 1019 30.09 848 25.04 22.4 72.4 41 8.8 47.9
20:50 1019 30.09 848 25.04 22 71.5 40 7.9 46.3
20:55 1019 30.09 848 25.04 21.6 70.9 43 8.7 47.7
21:00 1019 30.09 848 25.04 21.3 70.3 39 7.1 44.7
21:05 1019 30.09 849 25.07 21.6 70.9 41 7.9 46.1
21:10 1019 30.09 849 25.07 22.1 71.8 33 5.1 41.1
21:15 1020 30.12 849 25.07 23 73.4 33 5.9 42.7
21:20 1020 30.12 849 25.07 22.5 72.5 33 5.8 42.4
21:25 1020 30.12 849 25.07 22.4 72.2 34 5.9 42.5
21:30 1020 30.12 849 25.07 22.1 71.8 34 5.8 42.4
21:35 1020 30.12 849 25.07 22.2 71.9 33 5.4 41.8
21:40 1020 30.12 849 25.07 22.2 72 34 5.9 42.6
21:45 1020 30.12 849 25.07 21.9 71.5 35 5.9 42.7
21:50 1020 30.12 849 25.07 22 71.7 34 5.8 42.5
21:55 1020 30.12 849 25.07 22.1 71.8 34 5.9 42.6
22:00 1020 30.12 849 25.07 22 71.5 41 8.2 46.8
22:05 1020 30.12 849 25.07 21.9 71.5 34 5.4 41.7
22:10 1020 30.12 849 25.07 21.9 71.5 37 6.6 43.8
22:15 1020 30.12 849 25.07 21.6 70.9 41 8.1 46.5
22:20 1020 30.12 849 25.07 21.5 70.6 37 6.5 43.7
22:25 1020 30.12 849 25.07 21.5 70.7 35 5.6 42.2
22:30 1020 30.12 849 25.07 21.6 70.9 36 6.2 43.2
22:35 1020 30.12 849 25.07 21.9 71.4 34 5.3 41.6
22:40 1020 30.12 849 25.07 22.2 72 34 5.9 42.6
22:45 1020 30.12 849 25.07 22.3 72.1 36 6.9 44.4
22:50 1020 30.12 849 25.07 22.7 72.8 32 5.1 41.2
22:55 1020 30.12 849 25.07 22.7 72.8 36 7 44.6
23:00 1020 30.12 849 25.07 22.6 72.6 33 5.7 42.2
23:05 1020 30.12 849 25.07 22.9 73.3 30 4.7 40.5
23:10 1020 30.12 849 25.07 22.8 73.1 32 5.5 41.9
23:15 1020 30.12 849 25.07 22.3 72.1 32 5 41
23:20 1020 30.12 849 25.07 22 71.7 32 4.8 40.6
23:25 1020 30.12 849 25.07 22.2 71.9 30 4 39.1
23:30 1020 30.12 849 25.07 22.5 72.5 30 4 39.3
23:35 1020 30.12 849 25.07 22.5 72.6 29 3.9 39
23:40 1020 30.12 849 25.07 22.4 72.3 29 3.9 38.9
23:45 1020 30.12 849 25.07 22.4 72.3 29 3.8 38.8
23:50 1020 30.12 849 25.07 22.4 72.2 29 3.7 38.6
23:55 1020 30.12 849 25.07 22.3 72.2 29 3.5 38.3
24:00 1020 30.12 849 25.07 22.3 72.1 29 3.4 38.2